PWSweather.com
Personal Weather Stations
Station Observations

MakarauRodneyNZ

Lat: -36.52421, Lon: 174.47572

Elevation: 606

Station Type: Davis VP2

http://kaiparaweather.dynu.net/index.php

High Low Average
Temperature 62.7°F17.1°C 53.8°F12.1°C 58.9°F14.9°C
Dew Point 58.8°F14.9°C 47.2°F8.4°C 54.3°F12.4°C
Winds 13.8 mph 22.2 kmh 1.2 mph 1.9 kmh 7.0 mph WNW11.3 kmh WNW
Wind Gusts 28.8 mph46.3 kmh 1.2 mph1.9 kmh 13.0 mph20.9 kmh
Humidity 92% 78% 85%
Pressure 30.18 in1022.0 mb 29.80 in1009.1 mb -
Precipitation 0.00 in0.0 mm - -
Hour Temp Dew Point Humidity Winds Wind Gusts Pressure Precip Precip Rate Daily Precip Total
12:00 AM 53.9°F12.2°C 47.2°F8.4°C 78% 1.2 mph WSW1.9 kmh WSW 3.5 mph5.6 kmh 30.18 in1022.0 mb - 0.00 in0.0 mm 0.00 in0.0 mm
12:10 AM 53.9°F12.2°C 47.6°F8.7°C 79% 2.3 mph WSW3.7 kmh WSW 3.5 mph5.6 kmh 30.18 in1022.0 mb - 0.00 in0.0 mm 0.00 in0.0 mm
12:20 AM 53.9°F12.2°C 47.5°F8.6°C 79% 2.3 mph WSW3.7 kmh WSW 4.6 mph7.4 kmh 30.17 in1021.7 mb - 0.00 in0.0 mm 0.00 in0.0 mm
12:30 AM 53.8°F12.1°C 47.4°F8.6°C 79% 1.2 mph WSW1.9 kmh WSW 1.2 mph1.9 kmh 30.16 in1021.3 mb - 0.00 in0.0 mm 0.00 in0.0 mm
12:40 AM 53.9°F12.2°C 47.2°F8.4°C 78% 3.5 mph WSW5.6 kmh WSW 6.9 mph11.1 kmh 30.16 in1021.3 mb - 0.00 in0.0 mm 0.00 in0.0 mm
12:50 AM 54.1°F12.3°C 47.7°F8.7°C 79% 2.3 mph WSW3.7 kmh WSW 5.8 mph9.3 kmh 30.16 in1021.3 mb - 0.00 in0.0 mm 0.00 in0.0 mm
01:00 AM 54.3°F12.4°C 47.9°F8.8°C 79% 3.5 mph W5.6 kmh W 8.1 mph13.0 kmh 30.15 in1021.0 mb - 0.00 in0.0 mm 0.00 in0.0 mm
01:10 AM 54.4°F12.4°C 48.0°F8.9°C 79% 1.2 mph W1.9 kmh W 3.5 mph5.6 kmh 30.15 in1021.0 mb - 0.00 in0.0 mm 0.00 in0.0 mm
01:20 AM 54.5°F12.5°C 48.1°F8.9°C 79% 2.3 mph W3.7 kmh W 8.1 mph13.0 kmh 30.14 in1020.7 mb - 0.00 in0.0 mm 0.00 in0.0 mm
01:30 AM 54.5°F12.5°C 48.2°F9.0°C 79% 3.5 mph WNW5.6 kmh WNW 3.5 mph5.6 kmh 30.13 in1020.3 mb - 0.00 in0.0 mm 0.00 in0.0 mm
01:40 AM 54.6°F12.6°C 48.2°F9.0°C 79% 4.6 mph WNW7.4 kmh WNW 9.2 mph14.8 kmh 30.12 in1020.0 mb - 0.00 in0.0 mm 0.00 in0.0 mm
01:50 AM 54.7°F12.6°C 48.3°F9.1°C 79% 9.2 mph NW14.8 kmh NW 11.5 mph18.5 kmh 30.12 in1020.0 mb - 0.00 in0.0 mm 0.00 in0.0 mm
02:00 AM 54.7°F12.6°C 47.9°F8.8°C 78% 5.8 mph WNW9.3 kmh WNW 10.4 mph16.7 kmh 30.12 in1020.0 mb - 0.00 in0.0 mm 0.00 in0.0 mm
02:10 AM 54.7°F12.6°C 48.3°F9.1°C 79% 5.8 mph W9.3 kmh W 9.2 mph14.8 kmh 30.12 in1020.0 mb - 0.00 in0.0 mm 0.00 in0.0 mm
02:20 AM 54.6°F12.6°C 48.3°F9.1°C 79% 5.8 mph WNW9.3 kmh WNW 9.2 mph14.8 kmh 30.11 in1019.6 mb - 0.00 in0.0 mm 0.00 in0.0 mm
02:30 AM 54.5°F12.5°C 47.8°F8.8°C 78% 4.6 mph W7.4 kmh W 9.2 mph14.8 kmh 30.11 in1019.6 mb - 0.00 in0.0 mm 0.00 in0.0 mm
02:40 AM 54.6°F12.6°C 48.2°F9.0°C 79% 6.9 mph WNW11.1 kmh WNW 9.2 mph14.8 kmh 30.11 in1019.6 mb - 0.00 in0.0 mm 0.00 in0.0 mm
02:50 AM 54.8°F12.7°C 48.4°F9.1°C 79% 6.9 mph NW11.1 kmh NW 10.4 mph16.7 kmh 30.11 in1019.6 mb - 0.00 in0.0 mm 0.00 in0.0 mm
03:00 AM 54.9°F12.7°C 48.5°F9.2°C 79% 6.9 mph NW11.1 kmh NW 13.8 mph22.2 kmh 30.10 in1019.3 mb - 0.00 in0.0 mm 0.00 in0.0 mm
03:10 AM 55.0°F12.8°C 48.6°F9.2°C 79% 4.6 mph NW7.4 kmh NW 6.9 mph11.1 kmh 30.09 in1019.0 mb - 0.00 in0.0 mm 0.00 in0.0 mm
03:20 AM 55.0°F12.8°C 48.6°F9.2°C 79% 5.8 mph W9.3 kmh W 10.4 mph16.7 kmh 30.09 in1019.0 mb - 0.00 in0.0 mm 0.00 in0.0 mm
03:30 AM 55.0°F12.8°C 48.6°F9.2°C 79% 5.8 mph NW9.3 kmh NW 8.1 mph13.0 kmh 30.09 in1019.0 mb - 0.00 in0.0 mm 0.00 in0.0 mm
03:40 AM 55.1°F12.8°C 49.1°F9.5°C 80% 9.2 mph NW14.8 kmh NW 15.0 mph24.1 kmh 30.09 in1019.0 mb - 0.00 in0.0 mm 0.00 in0.0 mm
03:50 AM 55.3°F12.9°C 49.2°F9.6°C 80% 6.9 mph NW11.1 kmh NW 11.5 mph18.5 kmh 30.09 in1019.0 mb - 0.00 in0.0 mm 0.00 in0.0 mm
04:00 AM 55.3°F12.9°C 49.2°F9.6°C 80% 3.5 mph NW5.6 kmh NW 8.1 mph13.0 kmh 30.09 in1019.0 mb - 0.00 in0.0 mm 0.00 in0.0 mm
04:10 AM 55.3°F12.9°C 49.6°F9.8°C 81% 3.5 mph NW5.6 kmh NW 8.1 mph13.0 kmh 30.08 in1018.6 mb - 0.00 in0.0 mm 0.00 in0.0 mm
04:20 AM 55.4°F13.0°C 50.0°F10.0°C 82% 8.1 mph WNW13.0 kmh WNW 15.0 mph24.1 kmh 30.08 in1018.6 mb - 0.00 in0.0 mm 0.00 in0.0 mm
04:30 AM 55.5°F13.1°C 49.7°F9.8°C 81% 8.1 mph NW13.0 kmh NW 11.5 mph18.5 kmh 30.08 in1018.6 mb - 0.00 in0.0 mm 0.00 in0.0 mm
04:40 AM 55.5°F13.1°C 49.8°F9.9°C 81% 6.9 mph NW11.1 kmh NW 11.5 mph18.5 kmh 30.08 in1018.6 mb - 0.00 in0.0 mm 0.00 in0.0 mm
04:50 AM 55.5°F13.1°C 49.8°F9.9°C 81% 5.8 mph W9.3 kmh W 10.4 mph16.7 kmh 30.08 in1018.6 mb - 0.00 in0.0 mm 0.00 in0.0 mm
05:00 AM 55.5°F13.1°C 49.8°F9.9°C 81% 9.2 mph NW14.8 kmh NW 12.7 mph20.4 kmh 30.08 in1018.6 mb - 0.00 in0.0 mm 0.00 in0.0 mm
05:10 AM 55.6°F13.1°C 49.5°F9.7°C 80% 6.9 mph W11.1 kmh W 10.4 mph16.7 kmh 30.08 in1018.6 mb - 0.00 in0.0 mm 0.00 in0.0 mm
05:20 AM 55.6°F13.1°C 49.9°F9.9°C 81% 6.9 mph NNW11.1 kmh NNW 11.5 mph18.5 kmh 30.08 in1018.6 mb - 0.00 in0.0 mm 0.00 in0.0 mm
05:30 AM 55.6°F13.1°C 49.9°F9.9°C 81% 1.2 mph NW1.9 kmh NW 5.8 mph9.3 kmh 30.07 in1018.3 mb - 0.00 in0.0 mm 0.00 in0.0 mm
05:40 AM 55.7°F13.2°C 50.3°F10.2°C 82% 4.6 mph W7.4 kmh W 10.4 mph16.7 kmh 30.08 in1018.6 mb - 0.00 in0.0 mm 0.00 in0.0 mm
05:50 AM 55.8°F13.2°C 50.4°F10.2°C 82% 8.1 mph W13.0 kmh W 15.0 mph24.1 kmh 30.09 in1019.0 mb - 0.00 in0.0 mm 0.00 in0.0 mm
06:00 AM 56.0°F13.3°C 50.6°F10.3°C 82% 4.6 mph W7.4 kmh W 6.9 mph11.1 kmh 30.08 in1018.6 mb - 0.00 in0.0 mm 0.00 in0.0 mm
06:10 AM 56.2°F13.4°C 50.7°F10.4°C 82% 8.1 mph NW13.0 kmh NW 12.7 mph20.4 kmh 30.09 in1019.0 mb - 0.00 in0.0 mm 0.00 in0.0 mm
06:20 AM 56.3°F13.5°C 50.9°F10.5°C 82% 6.9 mph WNW11.1 kmh WNW 9.2 mph14.8 kmh 30.08 in1018.6 mb - 0.00 in0.0 mm 0.00 in0.0 mm
06:30 AM 56.4°F13.6°C 51.0°F10.6°C 82% 4.6 mph WSW7.4 kmh WSW 8.1 mph13.0 kmh 30.07 in1018.3 mb - 0.00 in0.0 mm 0.00 in0.0 mm
06:40 AM 56.5°F13.6°C 51.0°F10.6°C 82% 3.5 mph W5.6 kmh W 8.1 mph13.0 kmh 30.08 in1018.6 mb - 0.00 in0.0 mm 0.00 in0.0 mm
06:50 AM 56.6°F13.7°C 51.5°F10.8°C 83% 5.8 mph NW9.3 kmh NW 11.5 mph18.5 kmh 30.08 in1018.6 mb - 0.00 in0.0 mm 0.00 in0.0 mm
07:00 AM 56.9°F13.8°C 51.4°F10.8°C 82% 4.6 mph WSW7.4 kmh WSW 9.2 mph14.8 kmh 30.08 in1018.6 mb - 0.00 in0.0 mm 0.00 in0.0 mm
07:10 AM 57.3°F14.1°C 51.9°F11.1°C 82% 4.6 mph NW7.4 kmh NW 12.7 mph20.4 kmh 30.07 in1018.3 mb - 0.00 in0.0 mm 0.00 in0.0 mm
07:20 AM 57.5°F14.2°C 51.7°F10.9°C 81% 3.5 mph NW5.6 kmh NW 4.6 mph7.4 kmh 30.07 in1018.3 mb - 0.00 in0.0 mm 0.00 in0.0 mm
07:30 AM 57.6°F14.2°C 52.1°F11.2°C 82% 3.5 mph WSW5.6 kmh WSW 5.8 mph9.3 kmh 30.07 in1018.3 mb - 0.00 in0.0 mm 0.00 in0.0 mm
07:40 AM 57.7°F14.3°C 52.3°F11.3°C 82% 3.5 mph W5.6 kmh W 8.1 mph13.0 kmh 30.06 in1017.9 mb - 0.00 in0.0 mm 0.00 in0.0 mm
07:50 AM 58.1°F14.5°C 52.6°F11.4°C 82% 6.9 mph W11.1 kmh W 13.8 mph22.2 kmh 30.07 in1018.3 mb - 0.00 in0.0 mm 0.00 in0.0 mm
08:00 AM 57.9°F14.4°C 52.4°F11.3°C 82% 3.5 mph WSW5.6 kmh WSW 8.1 mph13.0 kmh 30.06 in1017.9 mb - 0.00 in0.0 mm 0.00 in0.0 mm
08:10 AM 58.1°F14.5°C 52.6°F11.4°C 82% 5.8 mph WNW9.3 kmh WNW 11.5 mph18.5 kmh 30.06 in1017.9 mb - 0.00 in0.0 mm 0.00 in0.0 mm
08:20 AM 58.1°F14.5°C 53.0°F11.7°C 83% 4.6 mph W7.4 kmh W 8.1 mph13.0 kmh 30.06 in1017.9 mb - 0.00 in0.0 mm 0.00 in0.0 mm
08:30 AM 58.1°F14.5°C 53.0°F11.7°C 83% 4.6 mph W7.4 kmh W 10.4 mph16.7 kmh 30.06 in1017.9 mb - 0.00 in0.0 mm 0.00 in0.0 mm
08:40 AM 58.1°F14.5°C 53.3°F11.8°C 84% 5.8 mph WNW9.3 kmh WNW 11.5 mph18.5 kmh 30.05 in1017.6 mb - 0.00 in0.0 mm 0.00 in0.0 mm
08:50 AM 58.3°F14.6°C 53.5°F11.9°C 84% 4.6 mph WSW7.4 kmh WSW 12.7 mph20.4 kmh 30.05 in1017.6 mb - 0.00 in0.0 mm 0.00 in0.0 mm
09:00 AM 58.2°F14.6°C 53.4°F11.9°C 84% 4.6 mph W7.4 kmh W 13.8 mph22.2 kmh 30.05 in1017.6 mb - 0.00 in0.0 mm 0.00 in0.0 mm
09:10 AM 58.5°F14.7°C 54.0°F12.2°C 85% 3.5 mph WNW5.6 kmh WNW 12.7 mph20.4 kmh 30.05 in1017.6 mb - 0.00 in0.0 mm 0.00 in0.0 mm
09:20 AM 58.8°F14.9°C 54.0°F12.2°C 84% 5.8 mph NW9.3 kmh NW 11.5 mph18.5 kmh 30.05 in1017.6 mb - 0.00 in0.0 mm 0.00 in0.0 mm
09:30 AM 58.9°F14.9°C 54.1°F12.3°C 84% 6.9 mph NW11.1 kmh NW 11.5 mph18.5 kmh 30.04 in1017.3 mb - 0.00 in0.0 mm 0.00 in0.0 mm
09:40 AM 59.1°F15.1°C 54.6°F12.6°C 85% 5.8 mph WNW9.3 kmh WNW 10.4 mph16.7 kmh 30.04 in1017.3 mb - 0.00 in0.0 mm 0.00 in0.0 mm
09:50 AM 59.5°F15.3°C 54.7°F12.6°C 84% 5.8 mph NW9.3 kmh NW 8.1 mph13.0 kmh 30.03 in1016.9 mb - 0.00 in0.0 mm 0.00 in0.0 mm
10:00 AM 60.1°F15.6°C 55.2°F12.9°C 84% 6.9 mph NW11.1 kmh NW 13.8 mph22.2 kmh 30.03 in1016.9 mb - 0.00 in0.0 mm 0.00 in0.0 mm
10:10 AM 60.0°F15.6°C 55.2°F12.9°C 84% 9.2 mph W14.8 kmh W 13.8 mph22.2 kmh 30.03 in1016.9 mb - 0.00 in0.0 mm 0.00 in0.0 mm
10:20 AM 60.1°F15.6°C 55.2°F12.9°C 84% 5.8 mph NW9.3 kmh NW 12.7 mph20.4 kmh 30.03 in1016.9 mb - 0.00 in0.0 mm 0.00 in0.0 mm
10:30 AM 59.8°F15.4°C 54.9°F12.7°C 84% 6.9 mph W11.1 kmh W 12.7 mph20.4 kmh 30.04 in1017.3 mb - 0.00 in0.0 mm 0.00 in0.0 mm
10:40 AM 59.9°F15.5°C 55.1°F12.8°C 84% 3.5 mph W5.6 kmh W 8.1 mph13.0 kmh 30.03 in1016.9 mb - 0.00 in0.0 mm 0.00 in0.0 mm
10:50 AM 59.9°F15.5°C 55.4°F13.0°C 85% 2.3 mph NW3.7 kmh NW 9.2 mph14.8 kmh 30.02 in1016.6 mb - 0.00 in0.0 mm 0.00 in0.0 mm
11:00 AM 60.0°F15.6°C 55.5°F13.1°C 85% 3.5 mph WNW5.6 kmh WNW 6.9 mph11.1 kmh 30.02 in1016.6 mb - 0.00 in0.0 mm 0.00 in0.0 mm
11:10 AM 60.1°F15.6°C 55.6°F13.1°C 85% 5.8 mph NW9.3 kmh NW 9.2 mph14.8 kmh 30.02 in1016.6 mb - 0.00 in0.0 mm 0.00 in0.0 mm
11:20 AM 60.0°F15.6°C 55.5°F13.1°C 85% 3.5 mph WSW5.6 kmh WSW 10.4 mph16.7 kmh 30.01 in1016.3 mb - 0.00 in0.0 mm 0.00 in0.0 mm
11:30 AM 60.2°F15.7°C 55.7°F13.2°C 85% 4.6 mph NW7.4 kmh NW 11.5 mph18.5 kmh 30.01 in1016.3 mb - 0.00 in0.0 mm 0.00 in0.0 mm
11:40 AM 60.8°F16.0°C 56.3°F13.5°C 85% 3.5 mph NW5.6 kmh NW 12.7 mph20.4 kmh 30.00 in1015.9 mb - 0.00 in0.0 mm 0.00 in0.0 mm
11:50 AM 61.1°F16.2°C 56.2°F13.4°C 84% 5.8 mph NNW9.3 kmh NNW 13.8 mph22.2 kmh 30.00 in1015.9 mb - 0.00 in0.0 mm 0.00 in0.0 mm
12:00 PM 61.0°F16.1°C 56.1°F13.4°C 84% 9.2 mph NW14.8 kmh NW 24.2 mph38.9 kmh 29.99 in1015.6 mb - 0.00 in0.0 mm 0.00 in0.0 mm
12:10 PM 60.9°F16.1°C 56.4°F13.6°C 85% 10.4 mph NW16.7 kmh NW 17.3 mph27.8 kmh 29.99 in1015.6 mb - 0.00 in0.0 mm 0.00 in0.0 mm
12:20 PM 60.7°F15.9°C 56.2°F13.4°C 85% 10.4 mph NW16.7 kmh NW 19.6 mph31.5 kmh 29.99 in1015.6 mb - 0.00 in0.0 mm 0.00 in0.0 mm
12:30 PM 60.8°F16.0°C 56.2°F13.4°C 85% 8.1 mph NW13.0 kmh NW 16.1 mph25.9 kmh 29.98 in1015.2 mb - 0.00 in0.0 mm 0.00 in0.0 mm
12:40 PM 60.7°F15.9°C 56.1°F13.4°C 85% 11.5 mph NNW18.5 kmh NNW 21.9 mph35.2 kmh 29.98 in1015.2 mb - 0.00 in0.0 mm 0.00 in0.0 mm
12:50 PM 60.8°F16.0°C 56.6°F13.7°C 86% 9.2 mph NNW14.8 kmh NNW 13.8 mph22.2 kmh 29.98 in1015.2 mb - 0.00 in0.0 mm 0.00 in0.0 mm
01:00 PM 60.9°F16.1°C 56.7°F13.7°C 86% 10.4 mph NW16.7 kmh NW 15.0 mph24.1 kmh 29.98 in1015.2 mb - 0.00 in0.0 mm 0.00 in0.0 mm
01:10 PM 61.0°F16.1°C 56.8°F13.8°C 86% 9.2 mph NNW14.8 kmh NNW 13.8 mph22.2 kmh 29.97 in1014.9 mb - 0.00 in0.0 mm 0.00 in0.0 mm
01:20 PM 61.5°F16.4°C 57.2°F14.0°C 86% 9.2 mph NW14.8 kmh NW 17.3 mph27.8 kmh 29.96 in1014.6 mb - 0.00 in0.0 mm 0.00 in0.0 mm
01:30 PM 61.7°F16.5°C 57.1°F13.9°C 85% 6.9 mph NW11.1 kmh NW 15.0 mph24.1 kmh 29.96 in1014.6 mb - 0.00 in0.0 mm 0.00 in0.0 mm
01:40 PM 61.9°F16.6°C 57.3°F14.1°C 85% 5.8 mph NW9.3 kmh NW 11.5 mph18.5 kmh 29.96 in1014.6 mb - 0.00 in0.0 mm 0.00 in0.0 mm
01:50 PM 62.2°F16.8°C 57.3°F14.1°C 84% 3.5 mph WNW5.6 kmh WNW 11.5 mph18.5 kmh 29.95 in1014.2 mb - 0.00 in0.0 mm 0.00 in0.0 mm
02:00 PM 62.4°F16.9°C 57.2°F14.0°C 83% 9.2 mph NW14.8 kmh NW 18.4 mph29.6 kmh 29.94 in1013.9 mb - 0.00 in0.0 mm 0.00 in0.0 mm
02:10 PM 62.5°F16.9°C 57.6°F14.2°C 84% 5.8 mph NNW9.3 kmh NNW 15.0 mph24.1 kmh 29.94 in1013.9 mb - 0.00 in0.0 mm 0.00 in0.0 mm
02:20 PM 62.7°F17.1°C 57.8°F14.3°C 84% 3.5 mph W5.6 kmh W 6.9 mph11.1 kmh 29.94 in1013.9 mb - 0.00 in0.0 mm 0.00 in0.0 mm
02:30 PM 62.6°F17.0°C 57.7°F14.3°C 84% 2.3 mph WNW3.7 kmh WNW 12.7 mph20.4 kmh 29.94 in1013.9 mb - 0.00 in0.0 mm 0.00 in0.0 mm
02:40 PM 62.2°F16.8°C 57.3°F14.1°C 84% 6.9 mph NW11.1 kmh NW 12.7 mph20.4 kmh 29.93 in1013.5 mb - 0.00 in0.0 mm 0.00 in0.0 mm
02:50 PM 62.2°F16.8°C 57.3°F14.1°C 84% 5.8 mph NW9.3 kmh NW 12.7 mph20.4 kmh 29.93 in1013.5 mb - 0.00 in0.0 mm 0.00 in0.0 mm
03:00 PM 62.1°F16.7°C 57.2°F14.0°C 84% 9.2 mph NNW14.8 kmh NNW 16.1 mph25.9 kmh 29.93 in1013.5 mb - 0.00 in0.0 mm 0.00 in0.0 mm
03:10 PM 61.8°F16.6°C 57.2°F14.0°C 85% 6.9 mph NNW11.1 kmh NNW 15.0 mph24.1 kmh 29.92 in1013.2 mb - 0.00 in0.0 mm 0.00 in0.0 mm
03:20 PM 61.5°F16.4°C 57.0°F13.9°C 85% 8.1 mph NW13.0 kmh NW 11.5 mph18.5 kmh 29.92 in1013.2 mb - 0.00 in0.0 mm 0.00 in0.0 mm
03:30 PM 61.4°F16.3°C 57.2°F14.0°C 86% 10.4 mph NW16.7 kmh NW 18.4 mph29.6 kmh 29.91 in1012.9 mb - 0.00 in0.0 mm 0.00 in0.0 mm
03:40 PM 61.4°F16.3°C 57.2°F14.0°C 86% 9.2 mph WNW14.8 kmh WNW 16.1 mph25.9 kmh 29.91 in1012.9 mb - 0.00 in0.0 mm 0.00 in0.0 mm
03:50 PM 61.4°F16.3°C 57.1°F13.9°C 86% 8.1 mph NW13.0 kmh NW 19.6 mph31.5 kmh 29.91 in1012.9 mb - 0.00 in0.0 mm 0.00 in0.0 mm
04:00 PM 61.3°F16.3°C 57.4°F14.1°C 87% 3.5 mph NW5.6 kmh NW 12.7 mph20.4 kmh 29.91 in1012.9 mb - 0.00 in0.0 mm 0.00 in0.0 mm
04:10 PM 61.3°F16.3°C 57.4°F14.1°C 87% 6.9 mph NW11.1 kmh NW 12.7 mph20.4 kmh 29.91 in1012.9 mb - 0.00 in0.0 mm 0.00 in0.0 mm
04:20 PM 61.2°F16.2°C 57.3°F14.1°C 87% 6.9 mph N11.1 kmh N 16.1 mph25.9 kmh 29.91 in1012.9 mb - 0.00 in0.0 mm 0.00 in0.0 mm
04:30 PM 61.1°F16.2°C 57.5°F14.2°C 88% 10.4 mph NW16.7 kmh NW 16.1 mph25.9 kmh 29.91 in1012.9 mb - 0.00 in0.0 mm 0.00 in0.0 mm
04:40 PM 61.0°F16.1°C 57.4°F14.1°C 88% 5.8 mph NW9.3 kmh NW 21.9 mph35.2 kmh 29.91 in1012.9 mb - 0.00 in0.0 mm 0.00 in0.0 mm
04:50 PM 61.0°F16.1°C 57.7°F14.3°C 89% 5.8 mph W9.3 kmh W 11.5 mph18.5 kmh 29.91 in1012.9 mb - 0.00 in0.0 mm 0.00 in0.0 mm
05:00 PM 61.0°F16.1°C 57.7°F14.3°C 89% 5.8 mph W9.3 kmh W 10.4 mph16.7 kmh 29.90 in1012.5 mb - 0.00 in0.0 mm 0.00 in0.0 mm
05:10 PM 60.9°F16.1°C 57.6°F14.2°C 89% 4.6 mph WNW7.4 kmh WNW 11.5 mph18.5 kmh 29.90 in1012.5 mb - 0.00 in0.0 mm 0.00 in0.0 mm
05:20 PM 60.9°F16.1°C 57.6°F14.2°C 89% 8.1 mph WNW13.0 kmh WNW 15.0 mph24.1 kmh 29.90 in1012.5 mb - 0.00 in0.0 mm 0.00 in0.0 mm
05:30 PM 60.8°F16.0°C 57.5°F14.2°C 89% 9.2 mph NNW14.8 kmh NNW 16.1 mph25.9 kmh 29.90 in1012.5 mb - 0.00 in0.0 mm 0.00 in0.0 mm
05:40 PM 60.7°F15.9°C 57.5°F14.2°C 89% 10.4 mph W16.7 kmh W 17.3 mph27.8 kmh 29.89 in1012.2 mb - 0.00 in0.0 mm 0.00 in0.0 mm
05:50 PM 60.7°F15.9°C 57.5°F14.2°C 89% 9.2 mph NW14.8 kmh NW 13.8 mph22.2 kmh 29.89 in1012.2 mb - 0.00 in0.0 mm 0.00 in0.0 mm
06:00 PM 60.7°F15.9°C 57.4°F14.1°C 89% 8.1 mph WNW13.0 kmh WNW 11.5 mph18.5 kmh 29.89 in1012.2 mb - 0.00 in0.0 mm 0.00 in0.0 mm
06:10 PM 60.7°F15.9°C 57.4°F14.1°C 89% 9.2 mph WNW14.8 kmh WNW 19.6 mph31.5 kmh 29.89 in1012.2 mb - 0.00 in0.0 mm 0.00 in0.0 mm
06:20 PM 60.7°F15.9°C 57.4°F14.1°C 89% 8.1 mph WNW13.0 kmh WNW 18.4 mph29.6 kmh 29.90 in1012.5 mb - 0.00 in0.0 mm 0.00 in0.0 mm
06:30 PM 60.7°F15.9°C 57.4°F14.1°C 89% 10.4 mph NW16.7 kmh NW 19.6 mph31.5 kmh 29.89 in1012.2 mb - 0.00 in0.0 mm 0.00 in0.0 mm
06:40 PM 60.7°F15.9°C 57.4°F14.1°C 89% 8.1 mph NW13.0 kmh NW 20.7 mph33.3 kmh 29.89 in1012.2 mb - 0.00 in0.0 mm 0.00 in0.0 mm
06:50 PM 60.7°F15.9°C 57.4°F14.1°C 89% 9.2 mph NW14.8 kmh NW 20.7 mph33.3 kmh 29.88 in1011.9 mb - 0.00 in0.0 mm 0.00 in0.0 mm
07:00 PM 60.8°F16.0°C 57.8°F14.3°C 90% 9.2 mph NW14.8 kmh NW 15.0 mph24.1 kmh 29.88 in1011.9 mb - 0.00 in0.0 mm 0.00 in0.0 mm
07:10 PM 60.8°F16.0°C 57.8°F14.3°C 90% 10.4 mph NW16.7 kmh NW 21.9 mph35.2 kmh 29.88 in1011.9 mb - 0.00 in0.0 mm 0.00 in0.0 mm
07:20 PM 60.7°F15.9°C 57.7°F14.3°C 90% 11.5 mph NNW18.5 kmh NNW 18.4 mph29.6 kmh 29.87 in1011.5 mb - 0.00 in0.0 mm 0.00 in0.0 mm
07:30 PM 60.6°F15.9°C 57.7°F14.3°C 90% 11.5 mph NW18.5 kmh NW 19.6 mph31.5 kmh 29.87 in1011.5 mb - 0.00 in0.0 mm 0.00 in0.0 mm
07:40 PM 60.6°F15.9°C 57.7°F14.3°C 90% 5.8 mph NW9.3 kmh NW 11.5 mph18.5 kmh 29.87 in1011.5 mb - 0.00 in0.0 mm 0.00 in0.0 mm
07:50 PM 60.6°F15.9°C 57.7°F14.3°C 90% 9.2 mph NW14.8 kmh NW 19.6 mph31.5 kmh 29.86 in1011.2 mb - 0.00 in0.0 mm 0.00 in0.0 mm
08:00 PM 60.6°F15.9°C 57.7°F14.3°C 90% 8.1 mph NNE13.0 kmh NNE 18.4 mph29.6 kmh 29.86 in1011.2 mb - 0.00 in0.0 mm 0.00 in0.0 mm
08:10 PM 60.6°F15.9°C 57.7°F14.3°C 90% 6.9 mph NW11.1 kmh NW 9.2 mph14.8 kmh 29.85 in1010.8 mb - 0.00 in0.0 mm 0.00 in0.0 mm
08:20 PM 60.7°F15.9°C 57.7°F14.3°C 90% 11.5 mph NW18.5 kmh NW 19.6 mph31.5 kmh 29.86 in1011.2 mb - 0.00 in0.0 mm 0.00 in0.0 mm
08:30 PM 60.8°F16.0°C 57.8°F14.3°C 90% 11.5 mph NW18.5 kmh NW 19.6 mph31.5 kmh 29.86 in1011.2 mb - 0.00 in0.0 mm 0.00 in0.0 mm
08:40 PM 60.8°F16.0°C 57.9°F14.4°C 90% 13.8 mph NNW22.2 kmh NNW 20.7 mph33.3 kmh 29.86 in1011.2 mb - 0.00 in0.0 mm 0.00 in0.0 mm
08:50 PM 60.9°F16.1°C 58.0°F14.4°C 90% 12.7 mph WNW20.4 kmh WNW 18.4 mph29.6 kmh 29.86 in1011.2 mb - 0.00 in0.0 mm 0.00 in0.0 mm
09:00 PM 61.0°F16.1°C 58.0°F14.4°C 90% 9.2 mph W14.8 kmh W 15.0 mph24.1 kmh 29.86 in1011.2 mb - 0.00 in0.0 mm 0.00 in0.0 mm
09:10 PM 61.0°F16.1°C 58.0°F14.4°C 90% 10.4 mph W16.7 kmh W 16.1 mph25.9 kmh 29.86 in1011.2 mb - 0.00 in0.0 mm 0.00 in0.0 mm
09:20 PM 61.0°F16.1°C 58.0°F14.4°C 90% 12.7 mph NW20.4 kmh NW 18.4 mph29.6 kmh 29.86 in1011.2 mb - 0.00 in0.0 mm 0.00 in0.0 mm
09:30 PM 61.1°F16.2°C 58.1°F14.5°C 90% 11.5 mph NW18.5 kmh NW 19.6 mph31.5 kmh 29.85 in1010.8 mb - 0.00 in0.0 mm 0.00 in0.0 mm
09:40 PM 61.0°F16.1°C 58.1°F14.5°C 90% 12.7 mph NW20.4 kmh NW 13.8 mph22.2 kmh 29.85 in1010.8 mb - 0.00 in0.0 mm 0.00 in0.0 mm
09:50 PM 61.0°F16.1°C 58.0°F14.4°C 90% 12.7 mph NW20.4 kmh NW 15.0 mph24.1 kmh 29.84 in1010.5 mb - 0.00 in0.0 mm 0.00 in0.0 mm
10:00 PM 60.9°F16.1°C 58.0°F14.4°C 90% 11.5 mph WNW18.5 kmh WNW 18.4 mph29.6 kmh 29.84 in1010.5 mb - 0.00 in0.0 mm 0.00 in0.0 mm
10:10 PM 61.1°F16.2°C 58.1°F14.5°C 90% 11.5 mph W18.5 kmh W 17.3 mph27.8 kmh 29.83 in1010.2 mb - 0.00 in0.0 mm 0.00 in0.0 mm
10:20 PM 61.1°F16.2°C 58.4°F14.7°C 91% 6.9 mph WNW11.1 kmh WNW 17.3 mph27.8 kmh 29.83 in1010.2 mb - 0.00 in0.0 mm 0.00 in0.0 mm
10:30 PM 61.1°F16.2°C 58.4°F14.7°C 91% 9.2 mph W14.8 kmh W 13.8 mph22.2 kmh 29.83 in1010.2 mb - 0.00 in0.0 mm 0.00 in0.0 mm
10:40 PM 61.1°F16.2°C 58.5°F14.7°C 91% 8.1 mph NW13.0 kmh NW 19.6 mph31.5 kmh 29.82 in1009.8 mb - 0.00 in0.0 mm 0.00 in0.0 mm
10:50 PM 61.1°F16.2°C 58.5°F14.7°C 91% 6.9 mph NW11.1 kmh NW 11.5 mph18.5 kmh 29.82 in1009.8 mb - 0.00 in0.0 mm 0.00 in0.0 mm
11:00 PM 61.2°F16.2°C 58.6°F14.8°C 91% 10.4 mph NW16.7 kmh NW 28.8 mph46.3 kmh 29.82 in1009.8 mb - 0.00 in0.0 mm 0.00 in0.0 mm
11:10 PM 61.4°F16.3°C 58.7°F14.8°C 91% 11.5 mph WNW18.5 kmh WNW 24.2 mph38.9 kmh 29.82 in1009.8 mb - 0.00 in0.0 mm 0.00 in0.0 mm
11:20 PM 61.3°F16.3°C 58.7°F14.8°C 91% 10.4 mph W16.7 kmh W 19.6 mph31.5 kmh 29.81 in1009.5 mb - 0.00 in0.0 mm 0.00 in0.0 mm
11:30 PM 61.2°F16.2°C 58.5°F14.7°C 91% 11.5 mph WNW18.5 kmh WNW 18.4 mph29.6 kmh 29.81 in1009.5 mb - 0.00 in0.0 mm 0.00 in0.0 mm
11:40 PM 61.1°F16.2°C 58.8°F14.9°C 92% 6.9 mph NW11.1 kmh NW 19.6 mph31.5 kmh 29.80 in1009.1 mb - 0.00 in0.0 mm 0.00 in0.0 mm
11:50 PM 61.1°F16.2°C 58.8°F14.9°C 92% 6.9 mph W11.1 kmh W 13.8 mph22.2 kmh 29.80 in1009.1 mb - 0.00 in0.0 mm 0.00 in0.0 mm